Greenville, TX

1:34 AM CDT on April 30, 2017 (GMT -0500)
Majors

Weather History for KGVT - January, 2014

Change the Weather History Date:

Wednesday, January 1, 2014

  Actual Average Record
Temperature  
Mean Temperature 48 °F -  
Max Temperature 64 °F 57 °F 78 °F (2006)
Min Temperature 32 °F 40 °F 28 °F (2008)
Degree Days  
Heating Degree Days 17    
Moisture  
Dew Point 36 °F    
Average Humidity 69    
Maximum Humidity 93    
Minimum Humidity 45    
Precipitation  
Precipitation 0.00 in - - ()
Sea Level Pressure  
Sea Level Pressure 30.06 in    
Wind  
Wind Speed 10 mph (South)    
Max Wind Speed 25 mph    
Max Gust Speed 33 mph    
Visibility 10 miles    
Events      
Averages and records for this station are not official NWS values.
T = Trace of Precipitation, MM = Missing Value Source: NWS Daily Summary

Daily Weather History Graph

Daily Weather History Graph

Search for Another Location

Airport or City:

Trip Planner

Search our weather history database for the weather conditions in past years. The results will help you decide how hot, cold, wet, or windy it might be!

Date:

Astronomy

Jan. 01, 2014 Rise Set
Actual Time 7:27 AM CST 5:28 PM CST
Civil Twilight 7:00 AM CST 5:55 PM CST
Nautical Twilight 6:29 AM CST 6:26 PM CST
Astronomical Twilight 5:59 AM CST 6:56 PM CST
Moon 7:22 AM CST (1/1) 6:10 PM CST (1/1)
Length of Visible Light 10h 55m
Length of Day
10h 01m
New Moon, 0% of the Moon is Illuminated
Jan 1
New Moon
Jan 7
First Quarter
Jan 15
Full
Jan 23
Last Quarter
Jan 30
New

Hourly Weather History & Observations

Time (CST) Temp. Windchill Dew Point Humidity Pressure Visibility Wind Dir Wind Speed Gust Speed Precip Events Conditions
12:15 AM 35.6 °F 30.7 °F 30.2 °F 81% 30.23 in 10.0 mi SSE 5.8 mph - N/A   Clear
12:35 AM 35.6 °F 29.9 °F 30.2 °F 81% 30.22 in 10.0 mi SSE 6.9 mph - N/A   Clear
12:55 AM 35.6 °F 29.9 °F 30.2 °F 81% 30.21 in 10.0 mi SSE 6.9 mph - N/A   Clear
1:15 AM 35.6 °F 30.7 °F 30.2 °F 81% 30.20 in 10.0 mi SSE 5.8 mph - N/A   Clear
1:35 AM 33.8 °F - 30.2 °F 87% 30.21 in 10.0 mi Calm Calm - N/A   Clear
1:55 AM 32.0 °F 26.4 °F 28.4 °F 87% 30.19 in 10.0 mi SSE 5.8 mph - N/A   Clear
2:15 AM 32.0 °F 27.5 °F 30.2 °F 93% 30.19 in 10.0 mi SSE 4.6 mph - N/A   Clear
2:35 AM 32.0 °F 26.4 °F 30.2 °F 93% 30.19 in 10.0 mi SSE 5.8 mph - N/A   Clear
2:55 AM 33.8 °F 28.6 °F 30.2 °F 87% 30.18 in 10.0 mi South 5.8 mph - N/A   Clear
3:15 AM 33.8 °F 28.6 °F 30.2 °F 87% 30.17 in 10.0 mi SSE 5.8 mph - N/A   Clear
3:35 AM 33.8 °F 28.6 °F 30.2 °F 87% 30.16 in 10.0 mi SSE 5.8 mph - N/A   Clear
3:55 AM 33.8 °F 28.6 °F 30.2 °F 87% 30.16 in 10.0 mi SSE 5.8 mph - N/A   Clear
4:15 AM 32.0 °F 27.5 °F 30.2 °F 93% 30.15 in 10.0 mi SSE 4.6 mph - N/A   Clear
4:35 AM 33.8 °F 28.6 °F 32.0 °F 93% 30.15 in 10.0 mi SSE 5.8 mph - N/A   Clear
4:55 AM 33.8 °F 28.6 °F 32.0 °F 93% 30.14 in 10.0 mi SSE 5.8 mph - N/A   Clear
5:15 AM 33.8 °F 28.6 °F 32.0 °F 93% 30.14 in 10.0 mi SSE 5.8 mph - N/A   Clear
5:35 AM 33.8 °F 27.7 °F 32.0 °F 93% 30.13 in 10.0 mi SSE 6.9 mph - N/A   Clear
5:55 AM 33.8 °F 29.6 °F 32.0 °F 93% 30.13 in 10.0 mi SSE 4.6 mph - N/A   Clear
6:15 AM 33.8 °F 28.6 °F 32.0 °F 93% 30.13 in 10.0 mi SSE 5.8 mph - N/A   Clear
6:35 AM 33.8 °F 28.6 °F 32.0 °F 93% 30.12 in 10.0 mi SSE 5.8 mph - N/A   Clear
6:55 AM 33.8 °F 27.7 °F 32.0 °F 93% 30.11 in 10.0 mi SSE 6.9 mph - N/A   Clear
7:15 AM 33.8 °F 27.0 °F 32.0 °F 93% 30.11 in 10.0 mi SSE 8.1 mph - N/A   Clear
7:35 AM 35.6 °F 29.9 °F 32.0 °F 87% 30.12 in 10.0 mi SSE 6.9 mph - N/A   Clear
7:55 AM 35.6 °F 29.2 °F 32.0 °F 87% 30.11 in 10.0 mi SSE 8.1 mph - N/A   Clear
8:15 AM 37.4 °F 30.3 °F 33.8 °F 87% 30.11 in 10.0 mi SSE 10.4 mph - N/A   Clear
8:35 AM 39.2 °F 32.0 °F 33.8 °F 81% 30.11 in 10.0 mi South 11.5 mph - N/A   Clear
8:55 AM 41.0 °F 34.3 °F 33.8 °F 76% 30.10 in 10.0 mi South 11.5 mph - N/A   Clear
9:15 AM 42.8 °F 35.8 °F 33.8 °F 70% 30.10 in 10.0 mi South 13.8 mph - N/A   Clear
9:35 AM 44.6 °F 37.8 °F 33.8 °F 66% 30.09 in 10.0 mi South 15.0 mph - N/A   Clear
9:55 AM 46.4 °F 40.7 °F 33.8 °F 62% 30.08 in 10.0 mi South 12.7 mph - N/A   Clear
10:15 AM 48.2 °F - 33.8 °F 58% 30.07 in 10.0 mi South 16.1 mph - N/A   Clear
10:35 AM 50.0 °F - 33.8 °F 54% 30.07 in 10.0 mi South 12.7 mph - N/A   Clear
10:55 AM 53.6 °F - 33.8 °F 47% 30.05 in 10.0 mi South 15.0 mph - N/A   Clear
11:15 AM 55.4 °F - 35.6 °F 47% 30.04 in 10.0 mi South 13.8 mph 21.9 mph N/A   Clear
11:35 AM 55.4 °F - 35.6 °F 47% 30.03 in 10.0 mi South 16.1 mph 21.9 mph N/A   Clear
11:55 AM 55.4 °F - 37.4 °F 51% 30.02 in 10.0 mi South 17.3 mph 24.2 mph N/A   Clear
12:15 PM 57.2 °F - 37.4 °F 48% 30.01 in 10.0 mi South 19.6 mph 25.3 mph N/A   Clear
12:35 PM 59.0 °F - 37.4 °F 45% 29.99 in 10.0 mi South 19.6 mph 24.2 mph N/A   Clear
12:55 PM 59.0 °F - 39.2 °F 48% 29.97 in 10.0 mi SSW 17.3 mph 26.5 mph N/A   Clear
1:15 PM 60.8 °F - 39.2 °F 45% 29.96 in 10.0 mi South 20.7 mph 25.3 mph N/A   Clear
1:35 PM 62.6 °F - 41.0 °F 45% 29.94 in 10.0 mi South 23.0 mph 27.6 mph N/A   Clear
1:55 PM 62.6 °F - 41.0 °F 45% 29.93 in 10.0 mi South 18.4 mph 24.2 mph N/A   Clear
2:15 PM 64.4 °F - 42.8 °F 45% 29.91 in 10.0 mi South 23.0 mph - N/A   Clear
2:35 PM 64.4 °F - 42.8 °F 45% 29.91 in 10.0 mi SSW 18.4 mph 33.4 mph N/A   Clear
2:55 PM 64.4 °F - 42.8 °F 45% 29.90 in 10.0 mi SSW 25.3 mph 32.2 mph N/A   Clear
3:15 PM 64.4 °F - 42.8 °F 45% 29.90 in 10.0 mi South 21.9 mph 29.9 mph N/A   Clear
3:35 PM 64.4 °F - 42.8 °F 45% 29.90 in 10.0 mi SSW 18.4 mph 32.2 mph N/A   Clear
3:55 PM 64.4 °F - 44.6 °F 49% 29.91 in 10.0 mi SSW 15.0 mph 21.9 mph N/A   Clear
4:15 PM 64.4 °F - 44.6 °F 49% 29.91 in 10.0 mi SSW 17.3 mph 20.7 mph N/A   Clear
4:35 PM 62.6 °F - 44.6 °F 52% 29.90 in 10.0 mi South 15.0 mph 24.2 mph N/A   Clear
4:55 PM 62.6 °F - 44.6 °F 52% 29.92 in 10.0 mi SSW 12.7 mph 18.4 mph N/A   Clear
5:15 PM 62.6 °F - 44.6 °F 52% 29.91 in 10.0 mi South 9.2 mph - N/A   Clear
5:35 PM 59.0 °F - 44.6 °F 59% 29.91 in 10.0 mi South 6.9 mph - N/A   Clear
5:55 PM 57.2 °F - 44.6 °F 63% 29.92 in 10.0 mi South 6.9 mph - N/A   Clear
6:15 PM 55.4 °F - 44.6 °F 67% 29.93 in 10.0 mi South 5.8 mph - N/A   Clear
6:35 PM 53.6 °F - 44.6 °F 72% 29.93 in 10.0 mi South 5.8 mph - N/A   Clear
6:55 PM 51.8 °F - 44.6 °F 76% 29.94 in 10.0 mi South 6.9 mph - N/A   Clear
7:15 PM 51.8 °F - 44.6 °F 76% 29.94 in 10.0 mi South 6.9 mph - N/A   Clear
7:35 PM 53.6 °F - 46.4 °F 77% 29.94 in 10.0 mi South 6.9 mph - N/A   Clear
7:55 PM 57.2 °F - 48.2 °F 72% 29.95 in 10.0 mi SSW 10.4 mph 16.1 mph N/A   Clear
8:15 PM 59.0 °F - 46.4 °F 63% 29.99 in 10.0 mi West 9.2 mph - N/A   Mostly Cloudy
8:35 PM 59.0 °F - 46.4 °F 63% 30.00 in 10.0 mi West 12.7 mph - N/A   Scattered Clouds
8:55 PM 55.4 °F - 37.4 °F 51% 30.01 in 10.0 mi NW 16.1 mph 21.9 mph N/A   Clear
9:15 PM 53.6 °F - 33.8 °F 47% 30.04 in 10.0 mi NNW 19.6 mph 29.9 mph N/A   Clear
9:35 PM 50.0 °F - 33.8 °F 54% 30.06 in 10.0 mi NNW 19.6 mph 28.8 mph N/A   Clear
9:55 PM 44.6 °F 36.4 °F 32.0 °F 61% 30.08 in 10.0 mi NNW 20.7 mph 29.9 mph N/A   Clear
10:15 PM 42.8 °F 35.1 °F 32.0 °F 66% 30.10 in 10.0 mi NW 16.1 mph 25.3 mph N/A   Clear
10:35 PM 41.0 °F 34.3 °F 32.0 °F 70% 30.12 in 10.0 mi NW 11.5 mph 19.6 mph N/A   Clear
10:55 PM 41.0 °F 32.8 °F 30.2 °F 65% 30.13 in 10.0 mi NW 16.1 mph 24.2 mph N/A   Clear
11:15 PM 37.4 °F 28.5 °F 30.2 °F 75% 30.14 in 10.0 mi NW 15.0 mph 19.6 mph N/A   Clear
11:35 PM 37.4 °F 27.5 °F 28.4 °F 70% 30.16 in 10.0 mi NNW 18.4 mph 21.9 mph N/A   Clear
11:55 PM 35.6 °F 27.1 °F 28.4 °F 75% 30.17 in 10.0 mi NNW 12.7 mph 23.0 mph N/A   Clear